Create Tblcommutelog Verified Points Advance Search
| # | Trip ID | Id Commuter | Trip Date | Trip Num | Current Lat | Current Lng | Delta Distance | Current Time | Activity | Activity Confidence | Current Speed | |
|---|---|---|---|---|---|---|---|---|---|---|---|---|
| 71881 | 260109_788423_16505268_0621 | 788423 | (not set) | (not set) | 38.797947487599 | -77.125928910887 | 24.1391 | 2026-01-09 06:48:25 | in_vehicle | 100 | 14.689710050337 | |
| 71882 | 260109_784692_16513841_0631 | 784692 | (not set) | (not set) | 38.798030441555 | -77.125593762135 | 20.0189 | 2026-01-09 06:48:26 | in_vehicle | 100 | 14.671828479977 | |
| 71883 | 260109_784815_16448780_0630 | 784815 | (not set) | (not set) | 38.953604490589 | -76.867547931882 | 19.5846 | 2026-01-09 06:48:26 | in_vehicle | 100 | 9.6381664237753 | |
| 71884 | 260109_790160_16516342_0635 | 790160 | (not set) | (not set) | 39.047759620661 | -77.112769698586 | 5.8376 | 2026-01-09 06:48:24 | in_vehicle | 100 | 5.498582885549 | |
| 71885 | 260109_790160_16516342_0635 | 790160 | (not set) | (not set) | 39.047759620661 | -77.112769698586 | 5.8376 | 2026-01-09 06:48:24 | in_vehicle | 100 | 5.498582885549 | |
| 71886 | 260109_781236_16513374_0647 | 781236 | (not set) | (not set) | 38.943819471316 | -77.026002487175 | 0.4258 | 2026-01-09 06:48:28 | unknown | 100 | 10.599300830599 | |
| 71887 | 260109_786880_16464305_0630 | 786880 | (not set) | (not set) | 38.891714132383 | -77.06418589594 | 18.3724 | 2026-01-09 06:48:28 | in_vehicle | 100 | 10.56800808247 | |
| 71888 | 260109_786880_16464305_0630 | 786880 | (not set) | (not set) | 38.891714132383 | -77.06418589594 | 18.3724 | 2026-01-09 06:48:28 | in_vehicle | 100 | 10.56800808247 | |
| 71889 | 260109_788220_16489920_0633 | 788220 | (not set) | (not set) | 38.875469830568 | -77.2806686993 | 17.9531 | 2026-01-09 06:48:29 | in_vehicle | 100 | 14.19349647286 | |
| 71890 | 260109_788220_16489920_0633 | 788220 | (not set) | (not set) | 38.875469830568 | -77.2806686993 | 17.9531 | 2026-01-09 06:48:29 | in_vehicle | 100 | 14.19349647286 | |
| 71891 | 260109_789860_16489920_0631 | 789860 | (not set) | (not set) | 38.875689581248 | -77.279988244467 | 18.2702 | 2026-01-09 06:48:31 | in_vehicle | 100 | 13.82692428049 | |
| 71892 | 260109_788221_16489920_0642 | 788221 | (not set) | (not set) | 38.875842634275 | -77.279197818806 | 8.082 | 2026-01-09 06:48:32 | unknown | 100 | 14.037032732215 | |
| 71893 | 260109_789839_16472497_0634 | 789839 | (not set) | (not set) | 38.721192837025 | -77.208290514739 | 15.322 | 2026-01-09 06:48:33 | in_vehicle | 100 | 14.278433932068 | |
| 71894 | 260109_788116_16505268_0629 | 788116 | (not set) | (not set) | 38.859087354308 | -77.435815994512 | 15.0124 | 2026-01-09 06:48:33 | in_vehicle | 100 | 14.323137857967 | |
| 71895 | 260109_788222_16468806_0634 | 788222 | (not set) | (not set) | 38.875939808808 | -77.279023208074 | 17.5146 | 2026-01-09 06:48:34 | unknown | 100 | 13.420118554811 | |
| 71896 | 260109_788956_16505268_0629 | 788956 | (not set) | (not set) | 38.85883189843 | -77.435620357075 | 14.9245 | 2026-01-09 06:48:34 | in_vehicle | 100 | 14.242670791349 | |
| 71897 | 260109_786113_16505268_0624 | 786113 | (not set) | (not set) | 38.798773894031 | -77.122768087775 | 23.8993 | 2026-01-09 06:48:34 | in_vehicle | 100 | 14.309726680197 | |
| 71898 | 260109_788423_16505268_0621 | 788423 | (not set) | (not set) | 38.799138017457 | -77.121374055412 | 24.3984 | 2026-01-09 06:48:38 | in_vehicle | 100 | 14.148792546961 | |
| 71899 | 260109_784815_16448780_0630 | 784815 | (not set) | (not set) | 38.95157288345 | -76.868873831375 | 19.7418 | 2026-01-09 06:48:38 | in_vehicle | 100 | 8.9094924316253 | |
| 71900 | 260109_784692_16513841_0631 | 784692 | (not set) | (not set) | 38.799222369219 | -77.121046505942 | 20.2778 | 2026-01-09 06:48:39 | in_vehicle | 100 | 14.175614902501 |